aviador You're here:

PAIL Decoded Metar

ILIAMNA in AK, USA
Report Time2017-12-18 07:53:00
UTC Time2017-12-18 08:53:47
Flight Rules vfr VFR
Wind320° at 09 kt
W.Decomp.*RWY 35: 6.1 kt HW 6.6 kt LCW
RWY 25: 5.4 kt HW 7.2 kt RCW
W.Rank320° ranks 12
Current wind is above 320° avg. (8.1)
Visibility9999 m
Phenomena:N/A
Clouds:N/A
Expected CloudBase > 800 ft AGL from Temp-Dew spread
CeilingNone
Temp-6°C (ISA -21)
Dew Point-8°C (86% RH)
AAT-12.1°C
QNH1016 hPa
Density Alt-2,457 ft
Elevation161 ft
Report Wrong Elevation
Raw Report
PAIL 180753Z AUTO 32009KT 10SM CLR M06/M08 A3000 RMK AO2 SLP163
T10611078 TSNO=

Extra information for PAIL:More info

Metar Taf Metar & Taf Last 4 Metars F.Rules Stats Wind Profile Meteogram Temp Stats Airport Information Weather charts Add Link Nearby VenuesMetar ALERT Operation Metar Decoded Social comments

AIRNAV info for PAIL